Search for airport 
image banner adimage banner ad
image banner ad

DNBE - Benin/Benin

Located in Benin, Nigeria

ICAO - DNBE, IATA - BNI

Data provided by Airmate  

General information

Coordinates: N6°18'60" E5°35'56"
Elevation is 259 feet MSL.
 
Rated:
View ratings: [VIEW]


View others Airports in Edo

Operational data

Open for public use
Current time UTC:
Current local time:
Weather
TAF: TAF DNBE 122300Z 1300/1406 VRB02KT 9999 SCT008 TEMPO 1305/1308 3000 BR PROB30 1306/1307 1500 BECMG 1308/1310 21010KT BKN012 TEMPO 1314/1317 SCT013 BECMG 1317/1319 VRB02KT SCT010
View NOTAMs / SUP AIP / TFR affecting this airport [VIEW]
Communications frequencies: [VIEW]

Runways:

RWY identifierQFULength (ft)Width (ft)SurfaceLDA (ft)
0545°7870148ASP
23225°7874148

Airport contact information

Address: Benin Nigeria

Satellite view of DNBE